createdAt,value
2018-09-29T00:00:20.227Z,2.05
2018-09-29T00:02:47.643Z,4.57
2018-09-29T00:05:15.169Z,3.17
2018-09-29T00:07:42.705Z,3.72
2018-09-29T00:10:10.183Z,6.57
2018-09-29T00:12:37.823Z,4.62
2018-09-29T00:15:05.295Z,3.58
2018-09-29T00:17:33.502Z,3.83
2018-09-29T00:20:00.982Z,3.47
2018-09-29T00:22:28.444Z,3.40
2018-09-29T00:24:55.959Z,3.12
2018-09-29T00:27:23.418Z,2.83
2018-09-29T00:29:50.912Z,3.83
2018-09-29T00:32:18.351Z,3.40
2018-09-29T00:34:45.824Z,3.10
2018-09-29T00:37:13.650Z,2.53
2018-09-29T00:39:42.079Z,2.95
2018-09-29T00:42:09.578Z,2.83
2018-09-29T00:44:37.042Z,2.72
2018-09-29T00:47:04.522Z,3.78
2018-09-29T00:49:32.063Z,2.70
2018-09-29T00:51:59.562Z,4.70
2018-09-29T00:54:27.036Z,3.92
2018-09-29T00:56:54.518Z,3.37
2018-09-29T00:59:22.022Z,4.40
2018-09-29T01:01:49.515Z,4.00
2018-09-29T01:04:17.150Z,4.72
2018-09-29T01:06:44.589Z,3.85
2018-09-29T01:09:12.025Z,4.40
2018-09-29T01:11:39.543Z,5.07
2018-09-29T01:14:07.004Z,5.72
2018-09-29T01:16:34.464Z,3.42
2018-09-29T01:19:02.070Z,3.53
2018-09-29T01:21:29.524Z,3.70
2018-09-29T01:23:57.057Z,4.57
2018-09-29T01:26:24.534Z,3.92
2018-09-29T01:28:52.023Z,4.90
2018-09-29T01:31:19.497Z,4.20
2018-09-29T01:33:46.980Z,5.25
2018-09-29T01:36:14.458Z,5.30
2018-09-29T01:38:41.910Z,5.82
2018-09-29T01:41:09.345Z,4.85
2018-09-29T01:43:36.773Z,4.90
2018-09-29T01:46:04.334Z,6.43
2018-09-29T01:48:31.827Z,5.65
2018-09-29T01:50:59.249Z,5.05
2018-09-29T01:53:26.792Z,5.40
2018-09-29T01:55:54.279Z,5.70
2018-09-29T01:58:21.758Z,4.95
2018-09-29T02:00:49.247Z,5.43
2018-09-29T02:03:16.693Z,5.20
2018-09-29T02:05:44.112Z,6.62
2018-09-29T02:08:11.566Z,6.32
2018-09-29T02:10:38.976Z,6.15
2018-09-29T02:13:06.457Z,6.85
2018-09-29T02:15:33.919Z,5.60
2018-09-29T02:18:01.394Z,8.15
2018-09-29T02:20:28.895Z,7.72
2018-09-29T02:22:56.385Z,7.18
2018-09-29T02:25:23.863Z,7.65
2018-09-29T02:27:52.221Z,8.18
2018-09-29T02:30:19.733Z,5.95
2018-09-29T02:32:47.149Z,6.47
2018-09-29T02:35:14.637Z,7.03
2018-09-29T02:37:42.085Z,8.05
2018-09-29T02:40:09.508Z,6.93
2018-09-29T02:42:37.067Z,7.28
2018-09-29T02:45:04.563Z,8.80
2018-09-29T02:47:31.977Z,8.57
2018-09-29T02:49:59.439Z,6.43
2018-09-29T02:52:27.543Z,7.97
2018-09-29T02:54:55.012Z,8.10
2018-09-29T02:57:22.546Z,7.32
2018-09-29T02:59:49.988Z,6.97
2018-09-29T03:02:17.443Z,8.52
2018-09-29T03:04:44.964Z,9.15
2018-09-29T03:07:13.294Z,8.00
2018-09-29T03:09:40.674Z,7.90
2018-09-29T03:12:08.484Z,9.70
2018-09-29T03:14:35.954Z,8.23
2018-09-29T03:17:03.464Z,9.10
2018-09-29T03:19:30.916Z,11.82
2018-09-29T03:21:58.349Z,10.05
2018-09-29T03:24:25.787Z,10.13
2018-09-29T03:26:53.247Z,7.87
2018-09-29T03:29:20.909Z,9.35
2018-09-29T03:31:48.389Z,8.60
2018-09-29T03:34:16.135Z,8.55
2018-09-29T03:36:43.582Z,8.65
2018-09-29T03:39:11.014Z,10.07
2018-09-29T03:41:38.439Z,8.75
2018-09-29T03:44:05.871Z,7.72
2018-09-29T03:46:33.336Z,8.73
2018-09-29T03:49:00.774Z,8.82
2018-09-29T03:51:28.185Z,8.52
2018-09-29T03:53:56.047Z,9.55
2018-09-29T03:56:23.545Z,8.13
2018-09-29T03:58:50.997Z,8.20
2018-09-29T04:01:18.431Z,8.63
2018-09-29T04:03:46.985Z,8.98
2018-09-29T04:06:14.481Z,6.78
2018-09-29T04:08:41.884Z,7.82
2018-09-29T04:11:09.408Z,7.55
2018-09-29T04:13:36.820Z,7.55
2018-09-29T04:16:04.272Z,6.62
2018-09-29T04:18:31.742Z,8.95
2018-09-29T04:20:59.163Z,6.85
2018-09-29T04:23:26.690Z,7.37
2018-09-29T04:25:54.147Z,9.98
2018-09-29T04:28:21.667Z,7.05
2018-09-29T04:30:49.115Z,8.38
2018-09-29T04:33:16.522Z,7.55
2018-09-29T04:35:43.945Z,8.35
2018-09-29T04:38:11.446Z,9.25
2018-09-29T04:40:38.920Z,7.45
2018-09-29T04:43:06.464Z,6.32
2018-09-29T04:45:33.977Z,6.70
2018-09-29T04:48:01.419Z,7.10
2018-09-29T04:50:28.885Z,9.15
2018-09-29T04:52:56.306Z,7.37
2018-09-29T04:55:25.014Z,9.38
2018-09-29T04:57:52.466Z,7.82
2018-09-29T05:00:19.926Z,7.68
2018-09-29T05:02:47.389Z,8.48
2018-09-29T05:05:15.854Z,8.40
2018-09-29T05:07:43.290Z,11.15
2018-09-29T05:10:10.778Z,8.27
2018-09-29T05:12:40.347Z,9.05
2018-09-29T05:15:07.844Z,7.87
2018-09-29T05:17:35.323Z,7.07
2018-09-29T05:20:02.752Z,9.48
2018-09-29T05:22:30.211Z,9.10
2018-09-29T05:24:57.644Z,9.45
2018-09-29T05:27:25.049Z,8.75
2018-09-29T05:29:52.552Z,10.65
2018-09-29T05:32:19.949Z,8.95
2018-09-29T05:34:47.396Z,9.75
2018-09-29T05:37:14.846Z,6.85
2018-09-29T05:39:42.951Z,9.85
2018-09-29T05:42:10.370Z,9.40
2018-09-29T05:44:37.821Z,9.93
2018-09-29T05:47:05.239Z,8.98
2018-09-29T05:49:32.677Z,8.55
2018-09-29T05:52:00.155Z,8.30
2018-09-29T05:54:27.605Z,7.87
2018-09-29T05:56:55.015Z,8.05
2018-09-29T05:59:22.523Z,8.80
2018-09-29T06:01:50.015Z,10.60
2018-09-29T06:04:17.502Z,8.27
2018-09-29T06:06:45.661Z,8.45
2018-09-29T06:09:13.109Z,9.68
2018-09-29T06:11:40.511Z,9.25
2018-09-29T06:14:08.026Z,10.43
2018-09-29T06:16:35.509Z,7.57
2018-09-29T06:19:02.980Z,10.15
2018-09-29T06:21:30.546Z,10.13
2018-09-29T06:23:58.022Z,9.77
2018-09-29T06:26:25.457Z,9.02
2018-09-29T06:28:52.880Z,11.73
2018-09-29T06:31:20.322Z,10.05
2018-09-29T06:33:47.787Z,11.15
2018-09-29T06:36:15.346Z,9.13
2018-09-29T06:38:42.813Z,8.10
2018-09-29T06:41:10.615Z,8.73
2018-09-29T06:43:38.164Z,9.20
2018-09-29T06:46:05.644Z,11.80
2018-09-29T06:48:33.152Z,8.07
2018-09-29T06:51:00.645Z,8.98
2018-09-29T06:53:28.132Z,9.13
2018-09-29T06:55:55.669Z,9.15
2018-09-29T06:58:23.286Z,7.12
2018-09-29T07:00:50.759Z,9.48
2018-09-29T07:03:18.175Z,7.28
2018-09-29T07:05:45.578Z,10.02
2018-09-29T07:08:13.047Z,8.82
2018-09-29T07:10:40.477Z,8.65
2018-09-29T07:13:07.930Z,8.32
2018-09-29T07:15:35.396Z,9.00
2018-09-29T07:18:02.809Z,10.48
2018-09-29T07:20:30.304Z,9.38
2018-09-29T07:22:58.641Z,8.57
2018-09-29T07:25:26.213Z,8.70
2018-09-29T07:27:53.664Z,10.75
2018-09-29T07:30:21.867Z,10.48
2018-09-29T07:32:49.923Z,7.93
2018-09-29T07:35:17.469Z,11.27
2018-09-29T07:37:45.317Z,9.45
2018-09-29T07:40:12.795Z,10.63
2018-09-29T07:42:40.277Z,11.00
2018-09-29T07:45:07.753Z,10.00
2018-09-29T07:47:35.218Z,10.63
2018-09-29T07:50:02.739Z,7.72
2018-09-29T07:52:30.178Z,12.48
2018-09-29T07:54:57.847Z,7.60
2018-09-29T07:57:25.263Z,10.98
2018-09-29T07:59:52.768Z,8.50
2018-09-29T08:02:20.847Z,9.55
2018-09-29T08:04:48.795Z,9.32
2018-09-29T08:07:16.301Z,11.27
2018-09-29T08:09:43.728Z,10.88
2018-09-29T08:12:12.460Z,9.50
2018-09-29T08:14:40.357Z,8.05
2018-09-29T08:17:07.924Z,15.38
2018-09-29T08:19:35.359Z,10.82
2018-09-29T08:22:02.798Z,12.30
2018-09-29T08:24:30.281Z,13.20
2018-09-29T08:26:57.698Z,10.43
2018-09-29T08:29:25.193Z,8.82
2018-09-29T08:31:52.888Z,11.27
2018-09-29T08:34:20.445Z,9.15
2018-09-29T08:36:47.884Z,10.05
2018-09-29T08:39:15.286Z,12.75
2018-09-29T08:41:42.948Z,10.52
2018-09-29T08:44:10.399Z,10.60
2018-09-29T08:46:37.990Z,10.27
2018-09-29T08:49:06.277Z,10.93
2018-09-29T08:51:33.838Z,10.52
2018-09-29T08:54:01.493Z,8.10
2018-09-29T08:56:28.934Z,11.38
2018-09-29T08:58:56.461Z,9.18
2018-09-29T09:01:23.899Z,10.10
2018-09-29T09:03:51.369Z,10.07
2018-09-29T09:06:18.785Z,9.93
2018-09-29T09:08:46.238Z,10.15
2018-09-29T09:11:14.053Z,8.48
2018-09-29T09:13:41.526Z,9.80
2018-09-29T09:16:08.981Z,10.80
2018-09-29T09:18:36.451Z,10.23
2018-09-29T09:21:03.905Z,10.00
2018-09-29T09:23:31.392Z,12.40
2018-09-29T09:25:59.672Z,10.85
2018-09-29T09:28:27.141Z,10.48
2018-09-29T09:30:54.594Z,11.10
2018-09-29T09:33:22.125Z,10.60
2018-09-29T09:35:49.603Z,13.18
2018-09-29T09:38:17.112Z,13.77
2018-09-29T09:40:44.877Z,13.20
2018-09-29T09:43:12.356Z,10.43
2018-09-29T09:45:40.027Z,11.95
2018-09-29T09:48:07.509Z,10.95
2018-09-29T09:50:34.970Z,9.38
2018-09-29T09:53:02.559Z,9.82
2018-09-29T09:55:30.116Z,8.52
2018-09-29T09:57:57.789Z,11.93
2018-09-29T10:00:25.292Z,10.45
2018-09-29T10:02:52.808Z,11.70
2018-09-29T10:05:20.288Z,9.25
2018-09-29T10:07:47.718Z,8.50
2018-09-29T10:10:15.182Z,11.68
2018-09-29T10:12:42.633Z,11.75
2018-09-29T10:15:10.095Z,9.90
2018-09-29T10:17:37.623Z,10.48
2018-09-29T10:20:05.048Z,8.30
2018-09-29T10:22:32.552Z,10.10
2018-09-29T10:25:00.080Z,9.95
2018-09-29T10:27:27.578Z,9.35
2018-09-29T10:29:54.999Z,11.90
2018-09-29T10:32:22.526Z,10.50
2018-09-29T10:34:49.962Z,9.55
2018-09-29T10:37:17.406Z,9.40
2018-09-29T10:39:44.986Z,11.12
2018-09-29T10:42:12.423Z,10.60
2018-09-29T10:44:41.004Z,10.90
2018-09-29T10:47:08.468Z,10.68
2018-09-29T10:49:35.902Z,9.60
2018-09-29T10:52:03.589Z,11.35
2018-09-29T10:54:31.074Z,9.00
2018-09-29T10:56:58.551Z,10.07
2018-09-29T10:59:26.037Z,8.85
2018-09-29T11:01:53.488Z,10.45
2018-09-29T11:04:21.028Z,8.98
2018-09-29T11:06:48.586Z,10.13
2018-09-29T11:09:16.462Z,11.43
2018-09-29T11:11:43.899Z,10.32
2018-09-29T11:14:11.324Z,11.30
2018-09-29T11:16:39.292Z,9.50
2018-09-29T11:19:06.788Z,10.65
2018-09-29T11:21:34.237Z,11.35
2018-09-29T11:24:01.809Z,10.98
2018-09-29T11:26:29.436Z,11.10
2018-09-29T11:28:56.967Z,9.13
2018-09-29T11:31:24.452Z,9.20
2018-09-29T11:33:51.922Z,9.52
2018-09-29T11:36:19.345Z,10.75
2018-09-29T11:38:46.800Z,9.93
2018-09-29T11:41:14.225Z,10.82
2018-09-29T11:43:41.781Z,10.80
2018-09-29T11:46:09.213Z,11.25
2018-09-29T11:48:36.752Z,12.07
2018-09-29T11:51:04.196Z,11.10
2018-09-29T11:53:31.857Z,8.63
2018-09-29T11:55:59.272Z,9.90
2018-09-29T11:58:26.696Z,11.82
2018-09-29T12:00:54.172Z,12.32
2018-09-29T12:03:21.685Z,11.48
2018-09-29T12:05:49.203Z,12.50
2018-09-29T12:08:16.613Z,11.65
2018-09-29T12:10:44.079Z,9.95
2018-09-29T12:13:11.517Z,10.07
2018-09-29T12:15:38.919Z,10.25
2018-09-29T12:18:07.052Z,9.35
2018-09-29T12:20:34.488Z,10.98
2018-09-29T12:23:02.233Z,10.50
2018-09-29T12:25:29.745Z,10.40
2018-09-29T12:27:57.230Z,11.50
2018-09-29T12:30:24.743Z,11.87
2018-09-29T12:37:46.430Z,13.80
2018-09-29T12:40:13.911Z,12.00
2018-09-29T12:52:30.416Z,10.93
2018-09-29T12:54:57.890Z,11.55
2018-09-29T12:57:25.335Z,11.60
2018-09-29T13:09:40.955Z,13.10
2018-09-29T13:12:08.449Z,12.48
2018-09-29T13:36:38.935Z,13.10
2018-09-29T13:39:06.589Z,14.82
2018-09-29T13:41:34.092Z,10.20
2018-09-29T13:44:01.584Z,11.48
2018-09-29T13:46:29.196Z,11.30
2018-09-29T13:48:56.682Z,13.23
2018-09-29T13:51:24.293Z,12.70
2018-09-29T13:53:51.731Z,12.43
2018-09-29T13:56:19.220Z,12.30
2018-09-29T13:58:46.664Z,12.95
2018-09-29T14:01:14.157Z,11.12
2018-09-29T14:03:41.613Z,10.00
2018-09-29T14:06:09.126Z,11.20
2018-09-29T14:08:36.647Z,10.98
2018-09-29T14:11:04.078Z,12.88
2018-09-29T14:13:31.502Z,13.18
2018-09-29T14:18:26.098Z,13.35
2018-09-29T15:49:09.806Z,10.60
2018-09-29T15:54:04.405Z,9.90
2018-09-29T15:56:31.901Z,10.82
2018-09-29T15:58:59.334Z,10.00
2018-09-29T16:01:26.964Z,11.93
2018-09-29T16:03:54.420Z,10.32
2018-09-29T16:06:21.844Z,11.93
2018-09-29T16:08:49.345Z,9.20
2018-09-29T16:11:16.841Z,9.85
2018-09-29T16:13:44.316Z,10.50
2018-09-29T16:16:11.776Z,11.30
2018-09-29T16:18:39.352Z,11.70
2018-09-29T16:21:06.853Z,10.70
2018-09-29T16:23:34.334Z,11.70
2018-09-29T16:28:28.905Z,11.95
2018-09-29T16:30:56.346Z,9.60
2018-09-29T16:33:23.769Z,10.50
2018-09-29T16:40:45.257Z,9.65
2018-09-29T16:43:12.803Z,10.10
2018-09-29T16:48:07.249Z,9.10
2018-09-29T16:50:34.750Z,8.65
2018-09-29T16:53:02.150Z,9.80
2018-09-29T16:55:29.686Z,8.40
2018-09-29T16:57:57.139Z,8.25
2018-09-29T17:00:24.615Z,9.02
2018-09-29T17:02:52.097Z,9.55
2018-09-29T17:05:19.624Z,7.43
2018-09-29T17:07:47.047Z,9.80
2018-09-29T17:10:14.669Z,8.00
2018-09-29T17:15:09.346Z,8.77
2018-09-29T17:17:36.812Z,9.43
2018-09-29T17:20:04.407Z,10.25
2018-09-29T17:22:31.829Z,10.45
2018-09-29T17:24:59.319Z,11.90
2018-09-29T17:27:26.738Z,9.20
2018-09-29T17:37:15.920Z,9.60
2018-09-29T17:39:43.334Z,7.55
2018-09-29T17:44:37.747Z,6.90
2018-09-29T17:49:32.321Z,8.70
2018-09-29T17:56:54.044Z,8.18
2018-09-29T17:59:21.493Z,9.75
2018-09-29T18:01:48.955Z,8.35
2018-09-29T18:04:16.449Z,8.27
2018-09-29T18:06:43.916Z,11.02
2018-09-29T18:09:11.348Z,9.30
2018-09-29T18:11:38.858Z,8.32
2018-09-29T18:14:06.323Z,8.50
2018-09-29T18:16:33.821Z,8.73
2018-09-29T18:19:01.322Z,8.82
2018-09-29T18:21:28.786Z,7.57
2018-09-29T18:23:56.263Z,7.37
2018-09-29T18:26:23.710Z,7.70
2018-09-29T18:28:51.195Z,6.97
2018-09-29T18:31:18.722Z,7.53
2018-09-29T18:33:46.169Z,6.80
2018-09-29T18:36:13.667Z,8.73
2018-09-29T18:38:41.203Z,8.90
2018-09-29T18:41:08.622Z,7.60
2018-09-29T18:43:36.118Z,9.70
2018-09-29T18:46:03.571Z,7.15
2018-09-29T18:48:31.073Z,8.60
2018-09-29T18:50:58.507Z,7.30
2018-09-29T18:53:25.942Z,8.75
2018-09-29T18:55:53.366Z,8.77
2018-09-29T18:58:20.825Z,8.60
2018-09-29T19:00:48.252Z,7.00
2018-09-29T19:03:15.702Z,8.80
2018-09-29T19:05:43.190Z,8.52
2018-09-29T19:08:10.644Z,7.50
2018-09-29T19:10:38.198Z,9.38
2018-09-29T19:13:05.666Z,8.77
2018-09-29T19:15:33.135Z,9.20
2018-09-29T19:18:00.572Z,7.35
2018-09-29T19:20:28.125Z,7.70
2018-09-29T19:22:55.558Z,7.55
2018-09-29T19:25:23.083Z,6.90
2018-09-29T19:27:50.510Z,7.18
2018-09-29T19:30:17.933Z,10.52
2018-09-29T19:32:45.393Z,6.35
2018-09-29T19:35:12.959Z,8.07
2018-09-29T19:37:40.444Z,7.28
2018-09-29T19:40:07.892Z,8.95
2018-09-29T19:42:35.391Z,6.35
2018-09-29T19:45:02.847Z,5.82
2018-09-29T19:47:30.299Z,7.95
2018-09-29T19:49:57.785Z,7.95
2018-09-29T19:52:25.247Z,8.10
2018-09-29T19:54:53.355Z,8.13
2018-09-29T19:57:20.837Z,7.10
2018-09-29T19:59:48.383Z,8.00
2018-09-29T20:02:15.792Z,7.47
2018-09-29T20:04:43.239Z,8.45
2018-09-29T20:07:11.888Z,8.20
2018-09-29T20:09:39.351Z,8.35
2018-09-29T20:12:07.028Z,10.80
2018-09-29T20:14:34.537Z,10.52
2018-09-29T20:17:02.070Z,16.48
2018-09-29T20:19:29.507Z,6.87
2018-09-29T20:21:57.206Z,9.00
2018-09-29T20:24:24.761Z,8.90
2018-09-29T20:26:52.206Z,13.55
2018-09-29T20:29:19.672Z,8.20
2018-09-29T20:31:47.144Z,9.70
2018-09-29T20:34:14.568Z,9.32
2018-09-29T20:36:42.017Z,8.45
2018-09-29T20:39:09.488Z,7.60
2018-09-29T20:41:36.925Z,8.98
2018-09-29T20:44:04.357Z,10.48
2018-09-29T20:46:31.847Z,9.75
2018-09-29T20:48:59.285Z,9.43
2018-09-29T20:51:26.763Z,9.77
2018-09-29T20:53:54.238Z,10.52
2018-09-29T20:56:21.739Z,9.38
2018-09-29T20:58:49.193Z,10.48
2018-09-29T21:01:16.651Z,8.75
2018-09-29T21:03:44.116Z,9.25
2018-09-29T21:06:11.745Z,9.07
2018-09-29T21:08:39.188Z,8.90
2018-09-29T21:11:07.068Z,8.68
2018-09-29T21:13:34.522Z,9.15
2018-09-29T21:16:01.984Z,9.32
2018-09-29T21:18:29.542Z,9.32
2018-09-29T21:20:57.015Z,8.77
2018-09-29T21:23:24.561Z,8.40
2018-09-29T21:25:52.036Z,10.20
2018-09-29T21:28:19.540Z,10.65
2018-09-29T21:30:47.082Z,8.93
2018-09-29T21:33:14.567Z,11.50
2018-09-29T21:35:42.031Z,11.80
2018-09-29T21:38:09.689Z,9.27
2018-09-29T21:40:37.131Z,8.32
2018-09-29T21:43:04.647Z,8.93
2018-09-29T21:45:32.148Z,7.93
2018-09-29T21:47:59.685Z,8.70
2018-09-29T21:50:27.113Z,9.65
2018-09-29T21:52:54.584Z,7.72
2018-09-29T21:55:22.031Z,9.20
2018-09-29T21:57:49.507Z,7.70
2018-09-29T22:00:17.069Z,8.80
2018-09-29T22:02:44.563Z,10.07
2018-09-29T22:05:12.180Z,7.57
2018-09-29T22:07:39.677Z,7.97
2018-09-29T22:10:07.089Z,8.85
2018-09-29T22:12:34.566Z,9.00
2018-09-29T22:15:02.041Z,8.23
2018-09-29T22:17:29.565Z,8.13
2018-09-29T22:19:57.027Z,10.38
2018-09-29T22:22:25.164Z,8.77
2018-09-29T22:24:52.624Z,9.18
2018-09-29T22:27:20.122Z,7.62
2018-09-29T22:29:47.545Z,9.77
2018-09-29T22:32:15.231Z,8.00
2018-09-29T22:34:42.880Z,9.18
2018-09-29T22:37:10.419Z,9.18
2018-09-29T22:39:37.927Z,10.07
2018-09-29T22:42:05.492Z,6.97
2018-09-29T22:44:32.949Z,8.32
2018-09-29T22:47:00.515Z,8.68
2018-09-29T22:49:28.118Z,8.25
2018-09-29T22:51:55.559Z,7.00
2018-09-29T22:54:22.995Z,8.27
2018-09-29T22:56:50.440Z,8.40
2018-09-29T22:59:17.964Z,7.50
2018-09-29T23:01:45.417Z,8.05
2018-09-29T23:04:12.980Z,7.80
2018-09-29T23:06:40.444Z,7.40
2018-09-29T23:09:08.388Z,8.45
2018-09-29T23:11:36.847Z,8.48
2018-09-29T23:14:04.383Z,7.60
2018-09-29T23:16:31.844Z,7.80
2018-09-29T23:18:59.356Z,6.70
2018-09-29T23:21:26.849Z,8.10
2018-09-29T23:23:54.274Z,8.13
2018-09-29T23:26:21.718Z,7.85
2018-09-29T23:28:49.227Z,7.70
2018-09-29T23:31:16.662Z,7.82
2018-09-29T23:33:44.134Z,7.80
2018-09-29T23:36:11.610Z,7.43
2018-09-29T23:38:39.019Z,8.45
2018-09-29T23:41:06.427Z,9.57
2018-09-29T23:43:33.943Z,8.80
2018-09-29T23:46:01.415Z,8.85
2018-09-29T23:48:28.868Z,7.90
2018-09-29T23:50:56.375Z,8.35
2018-09-29T23:53:23.811Z,9.82
2018-09-29T23:55:51.286Z,7.50
2018-09-29T23:58:18.780Z,8.77
